sensor_id;sensor_type;location;lat;lon;timestamp;P1;durP1;ratioP1;P2;durP2;ratioP2
6898;SDS011;3488;42.616;23.350;2023-06-04T00:02:16;10.23;;;8.05;;
6898;SDS011;3488;42.616;23.350;2023-06-04T00:04:43;9.45;;;8.52;;
6898;SDS011;3488;42.616;23.350;2023-06-04T00:07:10;9.30;;;8.02;;
6898;SDS011;3488;42.616;23.350;2023-06-04T00:09:36;7.75;;;6.97;;
6898;SDS011;3488;42.616;23.350;2023-06-04T00:12:04;8.10;;;7.35;;
6898;SDS011;3488;42.616;23.350;2023-06-04T00:14:31;8.30;;;7.50;;
6898;SDS011;3488;42.616;23.350;2023-06-04T00:16:58;10.75;;;6.70;;
6898;SDS011;3488;42.616;23.350;2023-06-04T00:19:26;12.80;;;7.88;;
6898;SDS011;3488;42.616;23.350;2023-06-04T00:21:54;8.68;;;7.85;;
6898;SDS011;3488;42.616;23.350;2023-06-04T00:24:21;11.35;;;8.23;;
6898;SDS011;3488;42.616;23.350;2023-06-04T00:26:48;17.67;;;9.80;;
6898;SDS011;3488;42.616;23.350;2023-06-04T00:29:15;11.55;;;10.27;;
6898;SDS011;3488;42.616;23.350;2023-06-04T00:31:41;11.80;;;9.70;;
6898;SDS011;3488;42.616;23.350;2023-06-04T00:34:09;9.45;;;8.30;;
6898;SDS011;3488;42.616;23.350;2023-06-04T00:36:38;9.55;;;7.80;;
6898;SDS011;3488;42.616;23.350;2023-06-04T00:39:05;12.05;;;8.50;;
6898;SDS011;3488;42.616;23.350;2023-06-04T00:41:32;10.70;;;8.32;;
6898;SDS011;3488;42.616;23.350;2023-06-04T00:43:59;10.25;;;8.93;;
6898;SDS011;3488;42.616;23.350;2023-06-04T00:46:27;11.38;;;9.85;;
6898;SDS011;3488;42.616;23.350;2023-06-04T00:48:56;12.82;;;9.40;;
6898;SDS011;3488;42.616;23.350;2023-06-04T00:51:25;12.27;;;9.57;;
6898;SDS011;3488;42.616;23.350;2023-06-04T00:53:54;11.25;;;9.45;;
6898;SDS011;3488;42.616;23.350;2023-06-04T00:56:21;10.23;;;9.20;;
6898;SDS011;3488;42.616;23.350;2023-06-04T00:58:49;13.20;;;9.85;;
6898;SDS011;3488;42.616;23.350;2023-06-04T01:01:19;10.63;;;9.10;;
6898;SDS011;3488;42.616;23.350;2023-06-04T01:03:57;10.52;;;9.52;;
6898;SDS011;3488;42.616;23.350;2023-06-04T01:06:28;13.77;;;10.02;;
6898;SDS011;3488;42.616;23.350;2023-06-04T01:09:01;11.80;;;10.55;;
6898;SDS011;3488;42.616;23.350;2023-06-04T01:11:30;14.35;;;11.32;;
6898;SDS011;3488;42.616;23.350;2023-06-04T01:13:58;11.85;;;10.45;;
6898;SDS011;3488;42.616;23.350;2023-06-04T01:16:25;11.45;;;10.25;;
6898;SDS011;3488;42.616;23.350;2023-06-04T01:18:56;10.23;;;9.18;;
6898;SDS011;3488;42.616;23.350;2023-06-04T01:21:28;11.10;;;9.48;;
6898;SDS011;3488;42.616;23.350;2023-06-04T01:23:56;11.23;;;10.05;;
6898;SDS011;3488;42.616;23.350;2023-06-04T01:26:29;10.80;;;9.73;;
6898;SDS011;3488;42.616;23.350;2023-06-04T01:28:58;11.90;;;9.52;;
6898;SDS011;3488;42.616;23.350;2023-06-04T01:31:28;13.45;;;10.20;;
6898;SDS011;3488;42.616;23.350;2023-06-04T01:33:58;10.10;;;9.13;;
6898;SDS011;3488;42.616;23.350;2023-06-04T01:36:25;10.95;;;9.75;;
6898;SDS011;3488;42.616;23.350;2023-06-04T01:38:52;10.82;;;9.68;;
6898;SDS011;3488;42.616;23.350;2023-06-04T01:41:19;12.55;;;9.63;;
6898;SDS011;3488;42.616;23.350;2023-06-04T01:43:48;12.10;;;10.85;;
6898;SDS011;3488;42.616;23.350;2023-06-04T01:46:15;14.27;;;11.90;;
6898;SDS011;3488;42.616;23.350;2023-06-04T01:48:43;13.27;;;11.88;;
6898;SDS011;3488;42.616;23.350;2023-06-04T01:51:09;16.25;;;11.90;;
6898;SDS011;3488;42.616;23.350;2023-06-04T01:53:37;12.40;;;11.15;;
6898;SDS011;3488;42.616;23.350;2023-06-04T01:56:04;12.65;;;11.35;;
6898;SDS011;3488;42.616;23.350;2023-06-04T01:58:32;14.30;;;11.52;;
6898;SDS011;3488;42.616;23.350;2023-06-04T02:01:02;13.82;;;12.40;;
6898;SDS011;3488;42.616;23.350;2023-06-04T02:03:30;12.73;;;11.20;;
6898;SDS011;3488;42.616;23.350;2023-06-04T02:06:05;13.63;;;11.40;;
6898;SDS011;3488;42.616;23.350;2023-06-04T02:08:34;12.70;;;11.32;;
6898;SDS011;3488;42.616;23.350;2023-06-04T02:11:01;13.15;;;10.95;;
6898;SDS011;3488;42.616;23.350;2023-06-04T02:13:28;13.27;;;10.95;;
6898;SDS011;3488;42.616;23.350;2023-06-04T02:15:55;10.73;;;9.63;;
6898;SDS011;3488;42.616;23.350;2023-06-04T02:18:23;10.90;;;9.13;;
6898;SDS011;3488;42.616;23.350;2023-06-04T02:20:51;10.27;;;9.23;;
6898;SDS011;3488;42.616;23.350;2023-06-04T02:23:18;10.80;;;9.05;;
6898;SDS011;3488;42.616;23.350;2023-06-04T02:25:46;7.65;;;6.85;;
6898;SDS011;3488;42.616;23.350;2023-06-04T02:28:14;7.00;;;6.40;;
6898;SDS011;3488;42.616;23.350;2023-06-04T02:30:42;6.43;;;5.82;;
6898;SDS011;3488;42.616;23.350;2023-06-04T02:33:10;7.07;;;6.00;;
6898;SDS011;3488;42.616;23.350;2023-06-04T02:35:39;7.88;;;6.15;;
6898;SDS011;3488;42.616;23.350;2023-06-04T02:38:06;6.95;;;6.30;;
6898;SDS011;3488;42.616;23.350;2023-06-04T02:40:34;6.07;;;5.47;;
6898;SDS011;3488;42.616;23.350;2023-06-04T02:43:00;6.25;;;5.70;;
6898;SDS011;3488;42.616;23.350;2023-06-04T02:45:30;6.30;;;5.78;;
6898;SDS011;3488;42.616;23.350;2023-06-04T02:47:57;6.57;;;5.88;;
6898;SDS011;3488;42.616;23.350;2023-06-04T02:50:24;6.25;;;5.70;;
6898;SDS011;3488;42.616;23.350;2023-06-04T02:52:52;7.60;;;6.97;;
6898;SDS011;3488;42.616;23.350;2023-06-04T02:55:19;7.30;;;6.60;;
6898;SDS011;3488;42.616;23.350;2023-06-04T02:57:46;7.70;;;6.72;;
6898;SDS011;3488;42.616;23.350;2023-06-04T03:00:13;7.88;;;7.18;;
6898;SDS011;3488;42.616;23.350;2023-06-04T03:02:42;7.85;;;7.05;;
6898;SDS011;3488;42.616;23.350;2023-06-04T03:05:11;8.07;;;7.38;;
6898;SDS011;3488;42.616;23.350;2023-06-04T03:07:40;7.45;;;6.75;;
6898;SDS011;3488;42.616;23.350;2023-06-04T03:10:11;10.13;;;8.32;;
6898;SDS011;3488;42.616;23.350;2023-06-04T03:12:40;8.35;;;7.57;;
6898;SDS011;3488;42.616;23.350;2023-06-04T03:15:07;9.82;;;8.50;;
6898;SDS011;3488;42.616;23.350;2023-06-04T03:17:36;9.57;;;8.65;;
6898;SDS011;3488;42.616;23.350;2023-06-04T03:20:03;11.65;;;7.97;;
6898;SDS011;3488;42.616;23.350;2023-06-04T03:22:32;7.80;;;7.07;;
6898;SDS011;3488;42.616;23.350;2023-06-04T03:25:00;7.38;;;6.68;;
6898;SDS011;3488;42.616;23.350;2023-06-04T03:27:30;9.50;;;8.52;;
6898;SDS011;3488;42.616;23.350;2023-06-04T03:29:57;9.80;;;8.32;;
6898;SDS011;3488;42.616;23.350;2023-06-04T03:32:25;9.75;;;8.45;;
6898;SDS011;3488;42.616;23.350;2023-06-04T03:34:52;9.38;;;7.78;;
6898;SDS011;3488;42.616;23.350;2023-06-04T03:37:20;7.47;;;6.85;;
6898;SDS011;3488;42.616;23.350;2023-06-04T03:39:47;7.40;;;6.70;;
6898;SDS011;3488;42.616;23.350;2023-06-04T03:42:14;6.60;;;6.00;;
6898;SDS011;3488;42.616;23.350;2023-06-04T03:44:43;6.85;;;6.25;;
6898;SDS011;3488;42.616;23.350;2023-06-04T03:47:12;6.35;;;5.65;;
6898;SDS011;3488;42.616;23.350;2023-06-04T03:49:39;5.78;;;5.28;;
6898;SDS011;3488;42.616;23.350;2023-06-04T03:52:06;6.20;;;5.68;;
6898;SDS011;3488;42.616;23.350;2023-06-04T03:54:33;10.50;;;5.63;;
6898;SDS011;3488;42.616;23.350;2023-06-04T03:57:00;6.30;;;5.80;;
6898;SDS011;3488;42.616;23.350;2023-06-04T03:59:28;7.05;;;5.38;;
6898;SDS011;3488;42.616;23.350;2023-06-04T04:01:57;4.85;;;4.55;;
6898;SDS011;3488;42.616;23.350;2023-06-04T04:04:24;5.68;;;5.22;;
6898;SDS011;3488;42.616;23.350;2023-06-04T04:06:51;8.40;;;6.25;;
6898;SDS011;3488;42.616;23.350;2023-06-04T04:09:18;7.57;;;6.85;;
6898;SDS011;3488;42.616;23.350;2023-06-04T04:11:44;7.00;;;6.30;;
6898;SDS011;3488;42.616;23.350;2023-06-04T04:14:12;7.93;;;7.13;;
6898;SDS011;3488;42.616;23.350;2023-06-04T04:16:39;10.52;;;6.97;;
6898;SDS011;3488;42.616;23.350;2023-06-04T04:19:07;8.32;;;6.78;;
6898;SDS011;3488;42.616;23.350;2023-06-04T04:21:35;6.22;;;5.63;;
6898;SDS011;3488;42.616;23.350;2023-06-04T04:24:03;5.45;;;4.88;;
6898;SDS011;3488;42.616;23.350;2023-06-04T04:26:30;5.93;;;5.45;;
6898;SDS011;3488;42.616;23.350;2023-06-04T04:28:57;5.72;;;5.22;;
6898;SDS011;3488;42.616;23.350;2023-06-04T04:31:25;6.60;;;6.10;;
6898;SDS011;3488;42.616;23.350;2023-06-04T04:33:55;5.93;;;5.35;;
6898;SDS011;3488;42.616;23.350;2023-06-04T04:36:23;6.18;;;5.43;;
6898;SDS011;3488;42.616;23.350;2023-06-04T04:38:51;6.93;;;6.22;;
6898;SDS011;3488;42.616;23.350;2023-06-04T04:41:20;5.93;;;5.40;;
6898;SDS011;3488;42.616;23.350;2023-06-04T04:43:48;7.65;;;6.13;;
6898;SDS011;3488;42.616;23.350;2023-06-04T04:46:15;6.80;;;6.22;;
6898;SDS011;3488;42.616;23.350;2023-06-04T04:48:42;6.55;;;6.00;;
6898;SDS011;3488;42.616;23.350;2023-06-04T04:51:09;9.20;;;6.18;;
6898;SDS011;3488;42.616;23.350;2023-06-04T04:53:37;6.68;;;6.18;;
6898;SDS011;3488;42.616;23.350;2023-06-04T04:56:04;6.75;;;6.15;;
6898;SDS011;3488;42.616;23.350;2023-06-04T04:58:31;6.22;;;5.43;;
6898;SDS011;3488;42.616;23.350;2023-06-04T05:00:57;5.82;;;5.30;;
6898;SDS011;3488;42.616;23.350;2023-06-04T05:03:24;6.05;;;5.40;;
6898;SDS011;3488;42.616;23.350;2023-06-04T05:05:51;6.10;;;5.60;;
6898;SDS011;3488;42.616;23.350;2023-06-04T05:08:18;6.55;;;4.75;;
6898;SDS011;3488;42.616;23.350;2023-06-04T05:10:47;5.28;;;4.88;;
6898;SDS011;3488;42.616;23.350;2023-06-04T05:13:15;5.15;;;4.65;;
6898;SDS011;3488;42.616;23.350;2023-06-04T05:15:42;5.38;;;4.78;;
6898;SDS011;3488;42.616;23.350;2023-06-04T05:18:10;5.25;;;4.90;;
6898;SDS011;3488;42.616;23.350;2023-06-04T05:20:37;6.30;;;5.75;;
6898;SDS011;3488;42.616;23.350;2023-06-04T05:23:04;5.53;;;5.07;;
6898;SDS011;3488;42.616;23.350;2023-06-04T05:25:31;6.18;;;5.57;;
6898;SDS011;3488;42.616;23.350;2023-06-04T05:28:00;6.60;;;6.10;;
6898;SDS011;3488;42.616;23.350;2023-06-04T05:30:26;7.53;;;6.35;;
6898;SDS011;3488;42.616;23.350;2023-06-04T05:32:53;6.00;;;5.60;;
6898;SDS011;3488;42.616;23.350;2023-06-04T05:35:21;7.15;;;6.47;;
6898;SDS011;3488;42.616;23.350;2023-06-04T05:37:48;8.10;;;6.75;;
6898;SDS011;3488;42.616;23.350;2023-06-04T05:40:19;6.53;;;5.97;;
6898;SDS011;3488;42.616;23.350;2023-06-04T05:42:46;7.03;;;6.35;;
6898;SDS011;3488;42.616;23.350;2023-06-04T05:45:15;9.52;;;6.97;;
6898;SDS011;3488;42.616;23.350;2023-06-04T05:47:42;8.27;;;6.15;;
6898;SDS011;3488;42.616;23.350;2023-06-04T05:50:09;8.73;;;7.20;;
6898;SDS011;3488;42.616;23.350;2023-06-04T05:52:36;5.97;;;5.40;;
6898;SDS011;3488;42.616;23.350;2023-06-04T05:55:04;6.63;;;6.05;;
6898;SDS011;3488;42.616;23.350;2023-06-04T05:57:33;7.75;;;6.40;;
6898;SDS011;3488;42.616;23.350;2023-06-04T06:00:00;6.53;;;5.93;;
6898;SDS011;3488;42.616;23.350;2023-06-04T06:02:31;6.68;;;6.07;;
6898;SDS011;3488;42.616;23.350;2023-06-04T06:05:00;9.38;;;6.38;;
6898;SDS011;3488;42.616;23.350;2023-06-04T06:07:27;6.93;;;6.13;;
6898;SDS011;3488;42.616;23.350;2023-06-04T06:09:54;6.03;;;5.60;;
6898;SDS011;3488;42.616;23.350;2023-06-04T06:12:21;6.38;;;5.78;;
6898;SDS011;3488;42.616;23.350;2023-06-04T06:14:48;7.35;;;6.68;;
6898;SDS011;3488;42.616;23.350;2023-06-04T06:17:16;7.60;;;6.90;;
6898;SDS011;3488;42.616;23.350;2023-06-04T06:19:45;7.05;;;6.50;;
6898;SDS011;3488;42.616;23.350;2023-06-04T06:22:12;7.20;;;6.60;;
6898;SDS011;3488;42.616;23.350;2023-06-04T06:24:39;7.88;;;6.72;;
6898;SDS011;3488;42.616;23.350;2023-06-04T06:27:06;9.30;;;7.22;;
6898;SDS011;3488;42.616;23.350;2023-06-04T06:29:33;10.95;;;5.50;;
6898;SDS011;3488;42.616;23.350;2023-06-04T06:32:00;6.50;;;5.50;;
6898;SDS011;3488;42.616;23.350;2023-06-04T06:34:28;5.95;;;5.35;;
6898;SDS011;3488;42.616;23.350;2023-06-04T06:36:56;7.28;;;5.50;;
6898;SDS011;3488;42.616;23.350;2023-06-04T06:39:24;6.35;;;5.80;;
6898;SDS011;3488;42.616;23.350;2023-06-04T06:41:50;6.32;;;5.57;;
6898;SDS011;3488;42.616;23.350;2023-06-04T06:44:18;6.00;;;5.35;;
6898;SDS011;3488;42.616;23.350;2023-06-04T06:46:45;6.85;;;6.15;;
6898;SDS011;3488;42.616;23.350;2023-06-04T06:49:14;6.03;;;5.53;;
6898;SDS011;3488;42.616;23.350;2023-06-04T06:51:41;8.52;;;5.38;;
6898;SDS011;3488;42.616;23.350;2023-06-04T06:54:10;5.63;;;5.22;;
6898;SDS011;3488;42.616;23.350;2023-06-04T06:56:37;6.70;;;5.95;;
6898;SDS011;3488;42.616;23.350;2023-06-04T06:59:04;7.28;;;6.50;;
6898;SDS011;3488;42.616;23.350;2023-06-04T07:01:31;6.43;;;5.85;;
6898;SDS011;3488;42.616;23.350;2023-06-04T07:03:59;10.38;;;5.95;;
6898;SDS011;3488;42.616;23.350;2023-06-04T07:06:26;6.60;;;6.05;;
6898;SDS011;3488;42.616;23.350;2023-06-04T07:08:53;5.80;;;5.35;;
6898;SDS011;3488;42.616;23.350;2023-06-04T07:11:22;5.15;;;4.68;;
6898;SDS011;3488;42.616;23.350;2023-06-04T07:13:49;7.97;;;6.00;;
6898;SDS011;3488;42.616;23.350;2023-06-04T07:16:16;6.75;;;5.82;;
6898;SDS011;3488;42.616;23.350;2023-06-04T07:18:47;6.10;;;5.70;;
6898;SDS011;3488;42.616;23.350;2023-06-04T07:21:14;8.80;;;6.57;;
6898;SDS011;3488;42.616;23.350;2023-06-04T07:23:41;6.75;;;6.20;;
6898;SDS011;3488;42.616;23.350;2023-06-04T07:26:10;6.30;;;5.70;;
6898;SDS011;3488;42.616;23.350;2023-06-04T07:28:39;7.65;;;6.95;;
6898;SDS011;3488;42.616;23.350;2023-06-04T07:31:05;7.88;;;5.97;;
6898;SDS011;3488;42.616;23.350;2023-06-04T07:33:32;6.65;;;6.15;;
6898;SDS011;3488;42.616;23.350;2023-06-04T07:35:59;7.07;;;6.43;;
6898;SDS011;3488;42.616;23.350;2023-06-04T07:38:27;6.68;;;6.03;;
6898;SDS011;3488;42.616;23.350;2023-06-04T07:40:54;9.00;;;6.35;;
6898;SDS011;3488;42.616;23.350;2023-06-04T07:43:21;9.80;;;6.22;;
6898;SDS011;3488;42.616;23.350;2023-06-04T07:45:50;6.72;;;6.22;;
6898;SDS011;3488;42.616;23.350;2023-06-04T07:48:17;6.95;;;6.25;;
6898;SDS011;3488;42.616;23.350;2023-06-04T07:50:45;7.85;;;6.90;;
6898;SDS011;3488;42.616;23.350;2023-06-04T07:53:12;7.78;;;7.18;;
6898;SDS011;3488;42.616;23.350;2023-06-04T07:55:39;8.52;;;7.38;;
6898;SDS011;3488;42.616;23.350;2023-06-04T07:58:07;10.40;;;6.93;;
6898;SDS011;3488;42.616;23.350;2023-06-04T08:00:34;7.57;;;6.85;;
6898;SDS011;3488;42.616;23.350;2023-06-04T08:03:02;7.57;;;6.97;;
6898;SDS011;3488;42.616;23.350;2023-06-04T08:05:30;9.35;;;7.10;;
6898;SDS011;3488;42.616;23.350;2023-06-04T08:07:57;8.70;;;7.80;;
6898;SDS011;3488;42.616;23.350;2023-06-04T08:10:23;8.10;;;7.30;;
6898;SDS011;3488;42.616;23.350;2023-06-04T08:12:50;8.52;;;7.65;;
6898;SDS011;3488;42.616;23.350;2023-06-04T08:15:17;9.75;;;8.32;;
6898;SDS011;3488;42.616;23.350;2023-06-04T08:17:44;9.70;;;8.30;;
6898;SDS011;3488;42.616;23.350;2023-06-04T08:20:13;10.23;;;8.23;;
6898;SDS011;3488;42.616;23.350;2023-06-04T08:22:40;8.45;;;7.65;;
6898;SDS011;3488;42.616;23.350;2023-06-04T08:25:07;10.73;;;8.93;;
6898;SDS011;3488;42.616;23.350;2023-06-04T08:27:35;9.98;;;8.52;;
6898;SDS011;3488;42.616;23.350;2023-06-04T08:30:03;8.32;;;7.55;;
6898;SDS011;3488;42.616;23.350;2023-06-04T08:32:30;8.77;;;7.60;;
6898;SDS011;3488;42.616;23.350;2023-06-04T08:34:58;9.15;;;8.00;;
6898;SDS011;3488;42.616;23.350;2023-06-04T08:37:28;8.52;;;7.72;;
6898;SDS011;3488;42.616;23.350;2023-06-04T08:39:55;16.80;;;8.25;;
6898;SDS011;3488;42.616;23.350;2023-06-04T08:42:22;9.20;;;7.60;;
6898;SDS011;3488;42.616;23.350;2023-06-04T08:44:54;7.90;;;7.05;;
6898;SDS011;3488;42.616;23.350;2023-06-04T08:47:23;9.25;;;6.57;;
6898;SDS011;3488;42.616;23.350;2023-06-04T08:49:51;7.85;;;7.13;;
6898;SDS011;3488;42.616;23.350;2023-06-04T08:52:18;9.00;;;7.60;;
6898;SDS011;3488;42.616;23.350;2023-06-04T08:54:49;11.95;;;7.35;;
6898;SDS011;3488;42.616;23.350;2023-06-04T08:57:22;9.07;;;6.97;;
6898;SDS011;3488;42.616;23.350;2023-06-04T08:59:48;11.55;;;7.35;;
6898;SDS011;3488;42.616;23.350;2023-06-04T09:02:17;11.40;;;6.35;;
6898;SDS011;3488;42.616;23.350;2023-06-04T09:04:44;8.15;;;6.25;;
6898;SDS011;3488;42.616;23.350;2023-06-04T09:07:11;9.35;;;6.72;;
6898;SDS011;3488;42.616;23.350;2023-06-04T09:09:40;7.18;;;6.45;;
6898;SDS011;3488;42.616;23.350;2023-06-04T09:12:11;10.55;;;7.97;;
6898;SDS011;3488;42.616;23.350;2023-06-04T09:14:44;9.40;;;8.18;;
6898;SDS011;3488;42.616;23.350;2023-06-04T09:17:11;8.98;;;6.72;;
6898;SDS011;3488;42.616;23.350;2023-06-04T09:19:38;7.20;;;6.60;;
6898;SDS011;3488;42.616;23.350;2023-06-04T09:22:05;7.43;;;6.72;;
6898;SDS011;3488;42.616;23.350;2023-06-04T09:24:39;8.02;;;7.15;;
6898;SDS011;3488;42.616;23.350;2023-06-04T09:27:11;7.40;;;6.32;;
6898;SDS011;3488;42.616;23.350;2023-06-04T09:29:39;7.30;;;6.70;;
6898;SDS011;3488;42.616;23.350;2023-06-04T09:32:06;9.18;;;7.43;;
6898;SDS011;3488;42.616;23.350;2023-06-04T09:34:33;9.07;;;7.60;;
6898;SDS011;3488;42.616;23.350;2023-06-04T09:37:01;8.35;;;7.57;;
6898;SDS011;3488;42.616;23.350;2023-06-04T09:39:29;7.32;;;6.13;;
6898;SDS011;3488;42.616;23.350;2023-06-04T09:41:57;9.00;;;6.68;;
6898;SDS011;3488;42.616;23.350;2023-06-04T09:44:26;12.57;;;7.43;;
6898;SDS011;3488;42.616;23.350;2023-06-04T09:46:54;9.05;;;7.45;;
6898;SDS011;3488;42.616;23.350;2023-06-04T09:49:22;8.52;;;7.70;;
6898;SDS011;3488;42.616;23.350;2023-06-04T09:51:49;13.27;;;7.97;;
6898;SDS011;3488;42.616;23.350;2023-06-04T09:54:16;8.00;;;7.18;;
6898;SDS011;3488;42.616;23.350;2023-06-04T09:56:43;9.52;;;7.90;;
6898;SDS011;3488;42.616;23.350;2023-06-04T09:59:11;12.48;;;7.78;;
6898;SDS011;3488;42.616;23.350;2023-06-04T10:01:41;9.52;;;7.85;;
6898;SDS011;3488;42.616;23.350;2023-06-04T10:04:10;8.52;;;7.30;;
6898;SDS011;3488;42.616;23.350;2023-06-04T10:06:41;12.05;;;7.28;;
6898;SDS011;3488;42.616;23.350;2023-06-04T10:09:09;7.05;;;6.55;;
6898;SDS011;3488;42.616;23.350;2023-06-04T10:11:39;11.55;;;7.10;;
6898;SDS011;3488;42.616;23.350;2023-06-04T10:14:12;15.00;;;7.97;;
6898;SDS011;3488;42.616;23.350;2023-06-04T10:16:47;7.20;;;6.50;;
6898;SDS011;3488;42.616;23.350;2023-06-04T10:19:16;9.55;;;7.35;;
6898;SDS011;3488;42.616;23.350;2023-06-04T10:21:45;8.50;;;7.70;;
6898;SDS011;3488;42.616;23.350;2023-06-04T10:24:13;11.05;;;6.82;;
6898;SDS011;3488;42.616;23.350;2023-06-04T10:26:41;7.03;;;6.28;;
6898;SDS011;3488;42.616;23.350;2023-06-04T10:29:08;7.78;;;6.97;;
6898;SDS011;3488;42.616;23.350;2023-06-04T10:31:38;8.05;;;6.50;;
6898;SDS011;3488;42.616;23.350;2023-06-04T10:34:07;7.82;;;7.13;;
6898;SDS011;3488;42.616;23.350;2023-06-04T10:36:42;7.35;;;6.38;;
6898;SDS011;3488;42.616;23.350;2023-06-04T10:39:10;8.10;;;6.60;;
6898;SDS011;3488;42.616;23.350;2023-06-04T10:41:37;8.27;;;6.35;;
6898;SDS011;3488;42.616;23.350;2023-06-04T10:44:04;7.03;;;6.43;;
6898;SDS011;3488;42.616;23.350;2023-06-04T10:46:39;6.88;;;6.25;;
6898;SDS011;3488;42.616;23.350;2023-06-04T10:49:09;7.82;;;7.10;;
6898;SDS011;3488;42.616;23.350;2023-06-04T10:51:37;6.90;;;6.38;;
6898;SDS011;3488;42.616;23.350;2023-06-04T10:54:04;6.25;;;5.75;;
6898;SDS011;3488;42.616;23.350;2023-06-04T10:56:31;7.50;;;6.75;;
6898;SDS011;3488;42.616;23.350;2023-06-04T10:59:00;9.15;;;6.38;;
6898;SDS011;3488;42.616;23.350;2023-06-04T11:01:38;7.00;;;6.40;;
6898;SDS011;3488;42.616;23.350;2023-06-04T11:04:06;7.90;;;7.07;;
6898;SDS011;3488;42.616;23.350;2023-06-04T11:06:34;6.97;;;6.30;;
6898;SDS011;3488;42.616;23.350;2023-06-04T11:09:02;6.88;;;6.28;;
6898;SDS011;3488;42.616;23.350;2023-06-04T11:11:32;6.85;;;6.25;;
6898;SDS011;3488;42.616;23.350;2023-06-04T11:14:06;7.63;;;6.80;;
6898;SDS011;3488;42.616;23.350;2023-06-04T11:16:37;6.90;;;6.32;;
6898;SDS011;3488;42.616;23.350;2023-06-04T11:19:04;6.75;;;6.15;;
6898;SDS011;3488;42.616;23.350;2023-06-04T11:21:34;6.57;;;6.13;;
6898;SDS011;3488;42.616;23.350;2023-06-04T11:24:03;6.90;;;6.40;;
6898;SDS011;3488;42.616;23.350;2023-06-04T11:26:31;6.07;;;5.57;;
6898;SDS011;3488;42.616;23.350;2023-06-04T11:28:59;6.70;;;6.18;;
6898;SDS011;3488;42.616;23.350;2023-06-04T11:31:27;7.10;;;6.38;;
6898;SDS011;3488;42.616;23.350;2023-06-04T11:33:54;5.95;;;5.55;;
6898;SDS011;3488;42.616;23.350;2023-06-04T11:36:24;7.38;;;6.53;;
6898;SDS011;3488;42.616;23.350;2023-06-04T11:38:58;6.80;;;6.30;;
6898;SDS011;3488;42.616;23.350;2023-06-04T11:41:26;7.93;;;6.03;;
6898;SDS011;3488;42.616;23.350;2023-06-04T11:43:55;6.22;;;5.78;;
6898;SDS011;3488;42.616;23.350;2023-06-04T11:46:22;7.18;;;6.60;;
6898;SDS011;3488;42.616;23.350;2023-06-04T11:48:51;6.82;;;6.22;;
6898;SDS011;3488;42.616;23.350;2023-06-04T11:51:19;7.35;;;6.70;;
6898;SDS011;3488;42.616;23.350;2023-06-04T11:53:46;7.68;;;7.03;;
6898;SDS011;3488;42.616;23.350;2023-06-04T11:56:16;7.43;;;6.93;;
6898;SDS011;3488;42.616;23.350;2023-06-04T11:58:44;8.43;;;7.68;;
6898;SDS011;3488;42.616;23.350;2023-06-04T12:01:11;8.00;;;7.18;;
6898;SDS011;3488;42.616;23.350;2023-06-04T12:03:40;8.52;;;7.28;;
6898;SDS011;3488;42.616;23.350;2023-06-04T12:06:11;8.38;;;7.38;;
6898;SDS011;3488;42.616;23.350;2023-06-04T12:08:47;8.57;;;7.63;;
6898;SDS011;3488;42.616;23.350;2023-06-04T12:11:29;8.43;;;7.82;;
6898;SDS011;3488;42.616;23.350;2023-06-04T12:13:57;8.15;;;7.47;;
6898;SDS011;3488;42.616;23.350;2023-06-04T12:16:26;9.15;;;8.40;;
6898;SDS011;3488;42.616;23.350;2023-06-04T12:19:04;8.70;;;7.93;;
6898;SDS011;3488;42.616;23.350;2023-06-04T12:21:32;8.38;;;7.57;;
6898;SDS011;3488;42.616;23.350;2023-06-04T12:24:06;9.23;;;7.95;;
6898;SDS011;3488;42.616;23.350;2023-06-04T12:26:35;9.80;;;8.82;;
6898;SDS011;3488;42.616;23.350;2023-06-04T12:29:07;9.45;;;8.55;;
6898;SDS011;3488;42.616;23.350;2023-06-04T12:31:36;9.27;;;8.40;;
6898;SDS011;3488;42.616;23.350;2023-06-04T12:34:04;9.52;;;8.52;;
6898;SDS011;3488;42.616;23.350;2023-06-04T12:36:31;9.30;;;8.50;;
6898;SDS011;3488;42.616;23.350;2023-06-04T12:39:00;11.45;;;9.77;;
6898;SDS011;3488;42.616;23.350;2023-06-04T12:41:30;9.98;;;8.95;;
6898;SDS011;3488;42.616;23.350;2023-06-04T12:44:01;10.40;;;9.40;;
6898;SDS011;3488;42.616;23.350;2023-06-04T12:46:28;10.52;;;9.48;;
6898;SDS011;3488;42.616;23.350;2023-06-04T12:48:55;10.38;;;9.38;;
6898;SDS011;3488;42.616;23.350;2023-06-04T12:51:22;11.38;;;9.35;;
6898;SDS011;3488;42.616;23.350;2023-06-04T12:53:50;10.30;;;8.93;;
6898;SDS011;3488;42.616;23.350;2023-06-04T12:56:18;9.23;;;8.43;;
6898;SDS011;3488;42.616;23.350;2023-06-04T12:58:45;9.60;;;8.65;;
6898;SDS011;3488;42.616;23.350;2023-06-04T13:01:14;9.43;;;8.20;;
6898;SDS011;3488;42.616;23.350;2023-06-04T13:03:42;9.60;;;8.63;;
6898;SDS011;3488;42.616;23.350;2023-06-04T13:06:09;9.38;;;8.57;;
6898;SDS011;3488;42.616;23.350;2023-06-04T13:08:36;9.18;;;8.48;;
6898;SDS011;3488;42.616;23.350;2023-06-04T13:11:03;8.27;;;7.75;;
6898;SDS011;3488;42.616;23.350;2023-06-04T13:13:30;8.95;;;8.15;;
6898;SDS011;3488;42.616;23.350;2023-06-04T13:15:57;9.45;;;7.88;;
6898;SDS011;3488;42.616;23.350;2023-06-04T13:18:26;9.05;;;8.25;;
6898;SDS011;3488;42.616;23.350;2023-06-04T13:20:53;8.85;;;7.72;;
6898;SDS011;3488;42.616;23.350;2023-06-04T13:23:21;7.82;;;7.22;;
6898;SDS011;3488;42.616;23.350;2023-06-04T13:25:48;8.52;;;7.85;;
6898;SDS011;3488;42.616;23.350;2023-06-04T13:28:15;8.55;;;7.70;;
6898;SDS011;3488;42.616;23.350;2023-06-04T13:30:43;8.20;;;7.50;;
6898;SDS011;3488;42.616;23.350;2023-06-04T13:33:10;7.07;;;6.53;;
6898;SDS011;3488;42.616;23.350;2023-06-04T13:35:38;11.75;;;7.20;;
6898;SDS011;3488;42.616;23.350;2023-06-04T13:38:07;8.57;;;7.88;;
6898;SDS011;3488;42.616;23.350;2023-06-04T13:40:34;8.15;;;7.03;;
6898;SDS011;3488;42.616;23.350;2023-06-04T13:43:02;7.30;;;6.63;;
6898;SDS011;3488;42.616;23.350;2023-06-04T13:45:31;7.05;;;6.47;;
6898;SDS011;3488;42.616;23.350;2023-06-04T13:47:58;6.65;;;6.05;;
6898;SDS011;3488;42.616;23.350;2023-06-04T13:50:29;6.30;;;5.90;;
6898;SDS011;3488;42.616;23.350;2023-06-04T13:52:58;7.07;;;6.47;;
6898;SDS011;3488;42.616;23.350;2023-06-04T13:55:25;6.47;;;6.07;;
6898;SDS011;3488;42.616;23.350;2023-06-04T13:57:52;9.63;;;6.63;;
6898;SDS011;3488;42.616;23.350;2023-06-04T14:00:19;6.10;;;5.57;;
6898;SDS011;3488;42.616;23.350;2023-06-04T14:02:46;6.13;;;5.72;;
6898;SDS011;3488;42.616;23.350;2023-06-04T14:05:14;7.40;;;6.70;;
6898;SDS011;3488;42.616;23.350;2023-06-04T14:07:42;8.15;;;6.38;;
6898;SDS011;3488;42.616;23.350;2023-06-04T14:10:11;7.13;;;6.38;;
6898;SDS011;3488;42.616;23.350;2023-06-04T14:12:39;7.18;;;6.68;;
6898;SDS011;3488;42.616;23.350;2023-06-04T14:15:07;6.90;;;6.40;;
6898;SDS011;3488;42.616;23.350;2023-06-04T14:17:36;7.38;;;6.63;;
6898;SDS011;3488;42.616;23.350;2023-06-04T14:20:04;7.75;;;6.28;;
6898;SDS011;3488;42.616;23.350;2023-06-04T14:22:33;7.30;;;6.22;;
6898;SDS011;3488;42.616;23.350;2023-06-04T14:25:02;8.50;;;6.28;;
6898;SDS011;3488;42.616;23.350;2023-06-04T14:27:31;6.70;;;6.10;;
6898;SDS011;3488;42.616;23.350;2023-06-04T14:29:59;7.20;;;6.63;;
6898;SDS011;3488;42.616;23.350;2023-06-04T14:32:27;7.38;;;6.68;;
6898;SDS011;3488;42.616;23.350;2023-06-04T14:34:54;9.50;;;6.38;;
6898;SDS011;3488;42.616;23.350;2023-06-04T14:37:22;8.07;;;6.95;;
6898;SDS011;3488;42.616;23.350;2023-06-04T14:39:49;7.22;;;6.63;;
6898;SDS011;3488;42.616;23.350;2023-06-04T14:42:17;7.60;;;7.00;;
6898;SDS011;3488;42.616;23.350;2023-06-04T14:44:46;7.88;;;7.10;;
6898;SDS011;3488;42.616;23.350;2023-06-04T14:47:13;7.57;;;6.97;;
6898;SDS011;3488;42.616;23.350;2023-06-04T14:49:40;7.60;;;6.93;;
6898;SDS011;3488;42.616;23.350;2023-06-04T14:52:07;7.68;;;7.05;;
6898;SDS011;3488;42.616;23.350;2023-06-04T14:54:35;7.20;;;6.50;;
6898;SDS011;3488;42.616;23.350;2023-06-04T14:57:03;7.82;;;7.03;;
6898;SDS011;3488;42.616;23.350;2023-06-04T14:59:31;7.65;;;7.05;;
6898;SDS011;3488;42.616;23.350;2023-06-04T15:02:00;8.73;;;8.00;;
6898;SDS011;3488;42.616;23.350;2023-06-04T15:04:28;8.65;;;7.65;;